12 Hour 24 Hour 72 Hour 120 Hour 240 Hour

48 hour History

Graph times and dates are UTC
Temperature/Dew point Wind (MPH)
temperature and dew point graph wind speed and direction graph
 
Barometer (millibars) Rain (inches)
barometer graph rain graph
Hourly/Total since local midnight
Wind Distribution (Past 48 hours)
48 Hour Wind Compass Rose

 

Hourly Observations (past 48 hours)

Date Hour Temperature (°F) Humi-
dity

(%)
Wind
(mph)
Pressure Rain (in) Sun
(W/m2)
UV ET
(in)
Air 6 Hour Dew Alt
(in Hg.)
Sea
Level

(mb)
1 hr 3 hr 6 hr Day Rate
Max Min Day
Nov 17 12:00 44.6 31.2 59 Calm 30.08 1018.5 0.03 0.25 0.00 146 0.0 0.014
Nov 17 11:00 43.8 30.4 59 W 0 G 3 30.08 1018.7 0.03 0.22 0.00 102 0.0 0.011
Nov 17 10:00 44.5 31.9 61 W 0 G 3 30.07 1018.5 0.04 0.08 0.19 0.04 79 0.0 0.008
Nov 17 09:00 42.6 32.8 68 Calm 30.07 1018.3 0.03 0.15 0.09 76 0.0 0.004
Nov 17 08:00 38.8 32.2 77 Calm 30.05 1017.6 0.01 0.12 0.00 100 0.0 0.001
Nov 17 07:00 37.6 38.0 36.8 31.4 78 Calm 30.01 1016.5 0.01 0.04 0.06 0.11 0.00 9 0.0 0.000
Nov 17 06:00 38.0 31.8 78 Calm 29.99 1015.7 0.01 0.10 0.00 0 0.0 0.000
Nov 17 05:00 37.6 31.7 79 WSW 0 G 1 29.96 1014.7 0.02 0.09 0.00 0 0.0 0.000
Nov 17 04:00 37.0 31.4 80 W 0 G 1 29.93 1013.6 0.02 0.07 0.00 0 0.0 0.000
Nov 17 03:00 36.8 31.2 80 Calm 29.91 1013.1 0.01 0.07 0.00 0 0.0 0.000
Nov 17 02:00 36.8 30.9 79 Calm 29.90 1012.4 0.01 0.06 0.00 0 0.0 0.000
Nov 17 01:00 36.8 38.0 36.6 30.6 78 WSW 0 G 1 29.88 1012.0 0.01 0.03 0.05 0.05 0.00 0 0.0 0.000
Nov 17 00:00 36.9 30.7 78 SSW 0 G 1 29.87 1011.6 0.01 0.33 0.00 0 0.0 0.000
Nov 16 23:00 37.0 30.8 78 W 0 G 2 29.86 1011.1 0.01 0.03 0.00 0 0.0 0.000
Nov 16 22:00 37.2 30.7 77 WSW 0 G 4 29.83 1010.3 0.02 0.02 0.00 0 0.0 0.000
Nov 16 21:00 36.9 30.7 78 Calm 29.80 1009.2 0.01 0.02 0.00 0 0.0 0.000
Nov 16 20:00 36.9 30.7 78 SW 0 G 2 29.78 1008.7 0.01 0.01 0.00 0 0.0 0.000
Nov 16 19:00 38.0 40.9 38.0 31.4 77 Calm 29.76 1007.7 0.02 0.07 0.25 0.00 0.00 0 0.0 0.000
Nov 16 18:00 38.8 32.2 77 SSW 0 G 1 29.74 1007.1 0.02 0.27 0.00 0 0.0 0.013
Nov 16 17:00 38.8 32.2 77 WNW 0 G 4 29.72 1006.4 0.03 0.25 0.00 0 0.0 0.013
Nov 16 16:00 39.3 32.4 76 W 0 G 7 29.69 1005.6 0.03 0.18 0.22 0.04 5 0.0 0.013
Nov 16 15:00 40.5 32.9 74 WNW 0 G 3 29.65 1004.2 0.07 0.19 0.05 37 0.0 0.013
Nov 16 14:00 40.8 34.5 78 NW 0 G 3 29.63 1003.4 0.08 0.12 0.05 72 0.0 0.012
Nov 16 13:00 40.3 40.3 32.5 37.0 88 W 0 G 5 29.60 1002.5 0.04 0.04 0.04 0.04 0.10 163 0.0 0.010
Nov 16 12:00 38.8 37.2 94 WNW 0 G 6 29.59 1002.0 0.00 0.00 325 0.0 0.007
Nov 16 11:00 37.0 35.7 95 NW 0 G 1 29.59 1002.1 0.00 0.00 116 0.0 0.004
Nov 16 10:00 35.0 34.0 96 NE 3 G 9 29.57 1001.4 0.00 0.00 109 0.0 0.001
Nov 16 09:00 33.8 32.8 96 NNE 1 G 11 29.51 999.2 0.00 0.00 39 0.0 0.000
Nov 16 08:00 32.7 31.7 96 W 1 G 7 29.53 1000.0 0.00 0.00 11 0.0 0.000
Nov 16 07:00 33.5 33.7 32.7 32.2 95 NNE 1 G 8 29.47 998.0 0.00 0.00 0 0.0 0.000
Nov 16 06:00 33.5 32.2 95 NNE 4 G 12 29.44 997.2 0.00 0.00 0 0.0 0.000
Nov 16 05:00 33.5 32.2 95 ENE 3 G 14 29.45 997.3 0.00 0.00 0 0.0 0.000
Nov 16 04:00 33.4 32.1 95 ENE 6 G 14 29.49 998.8 0.00 0.00 0 0.0 0.000
Nov 16 03:00 33.2 31.7 94 ENE 1 G 7 29.57 1001.4 0.00 0.00 0 0.0 0.000
Nov 16 02:00 32.8 31.3 94 ENE 4 G 10 29.62 1003.1 0.00 0.00 0 0.0 0.000
Nov 16 01:00 32.7 32.7 25.0 30.9 93 ENE 4 G 11 29.70 1006.0 0.00 0.00 0 0.0 0.000
Nov 16 00:00 32.4 30.6 93 ENE 8 G 18 29.74 1007.0 0.00 0.00 0 0.0 0.000
Nov 15 23:00 31.8 30.0 93 ENE 8 G 16 29.83 1010.2 0.00 0.00 0 0.0 0.000
Nov 15 22:00 29.8 27.8 92 ENE 6 G 16 29.94 1013.8 0.00 0.00 0 0.0 0.000
Nov 15 21:00 27.6 25.3 91 ENE 6 G 14 29.99 1015.5 0.00 0.00 0 0.0 0.000
Nov 15 20:00 25.6 22.8 89 E 4 G 13 30.08 1018.5 0.00 0.00 0 0.0 0.000
Nov 15 19:00 25.0 29.5 24.7 21.7 87 E 4 G 11 30.16 1021.3 0.00 0.00 0 0.0 0.000
Nov 15 18:00 24.8 20.9 85 ENE 4 G 10 30.17 1021.7 0.01 0.00 0 0.0 0.019
Nov 15 17:00 25.6 20.6 81 ENE 0 G 6 30.23 1023.7 0.01 0.00 0 0.0 0.019
Nov 15 16:00 27.3 19.5 72 ENE 1 G 8 30.25 1024.5 0.01 0.00 0 0.0 0.019
Nov 15 15:00 29.1 14.1 53 ENE 2 G 10 30.24 1024.0 0.01 0.00 7 0.0 0.018
Nov 15 14:00 29.4 13.0 50 E 3 G 10 30.32 1026.9 0.01 0.00 16 0.0 0.017
Nov 15 13:00 29.5 29.5 25.8 12.7 49 ENE 6 G 9 30.37 1028.4 0.01 0.00 30 0.0 0.016

0.0143